Time;durP1;ratioP1;P1;durP2;ratioP2;P2;SDS_P1;SDS_P2;PMS_P1;PMS_P2;Temp;Humidity;BMP_temperature;BMP_pressure;BME280_temperature;BME280_humidity;BME280_pressure;Samples;Min_cycle;Max_cycle;Signal;HPM_P1;HPM_P2
2021/05/14 00:00:37;;;;;;;3.78;2.50;;;;;;;;;;4941197;28;20515;-83
2021/05/14 00:03:04;;;;;;;3.30;2.67;;;;;;;;;;4953042;28;20559;-84
2021/05/14 00:05:30;;;;;;;3.80;2.60;;;;;;;;;;4939048;28;20043;-84
2021/05/14 00:07:57;;;;;;;3.10;2.50;;;;;;;;;;4924267;28;20036;-84
2021/05/14 00:10:23;;;;;;;2.97;2.30;;;;;;;;;;4942074;28;20515;-84
2021/05/14 00:12:50;;;;;;;3.40;2.55;;;;;;;;;;4942721;28;20066;-84
2021/05/14 00:15:17;;;;;;;3.92;2.50;;;;;;;;;;4933173;28;20067;-84
2021/05/14 00:17:44;;;;;;;4.40;2.42;;;;;;;;;;4930491;28;20120;-84
2021/05/14 00:20:11;;;;;;;3.80;2.30;;;;;;;;;;4932338;28;20055;-84
2021/05/14 00:22:37;;;;;;;4.05;2.80;;;;;;;;;;4927037;28;20055;-84
2021/05/14 00:25:08;;;;;;;3.28;2.60;;;;;;;;;;4912195;29;20064;-83
2021/05/14 00:27:34;;;;;;;3.25;2.38;;;;;;;;;;4934031;28;20106;-85
2021/05/14 00:30:01;;;;;;;3.35;2.60;;;;;;;;;;4929321;28;20096;-84
2021/05/14 00:32:27;;;;;;;3.25;2.30;;;;;;;;;;4920746;28;20579;-83
2021/05/14 00:34:54;;;;;;;3.67;2.20;;;;;;;;;;4925486;28;20063;-84
2021/05/14 00:37:20;;;;;;;4.50;2.35;;;;;;;;;;4920578;28;20055;-84
2021/05/14 00:39:47;;;;;;;4.05;2.30;;;;;;;;;;4935746;28;20452;-84
2021/05/14 00:42:14;;;;;;;3.10;2.42;;;;;;;;;;4908215;28;20067;-84
2021/05/14 00:44:46;;;;;;;3.80;2.35;;;;;;;;;;4932265;28;20027;-84
2021/05/14 00:47:14;;;;;;;3.22;2.53;;;;;;;;;;4931374;28;20137;-84
2021/05/14 00:49:43;;;;;;;2.97;2.30;;;;;;;;;;4935196;28;20055;-84
2021/05/14 00:52:10;;;;;;;3.00;2.20;;;;;;;;;;4923811;28;20119;-84
2021/05/14 00:54:37;;;;;;;3.95;2.42;;;;;;;;;;4942428;28;20461;-84
2021/05/14 00:57:04;;;;;;;3.08;2.20;;;;;;;;;;4945525;28;20547;-84
2021/05/14 00:59:31;;;;;;;2.83;2.33;;;;;;;;;;4925166;28;20135;-84
2021/05/14 01:01:57;;;;;;;2.80;2.10;;;;;;;;;;4921832;28;20059;-85
2021/05/14 01:04:24;;;;;;;3.55;2.35;;;;;;;;;;4941935;28;20060;-85
2021/05/14 01:06:51;;;;;;;2.80;2.08;;;;;;;;;;4922965;28;20040;-85
2021/05/14 01:09:17;;;;;;;3.92;2.53;;;;;;;;;;4937296;28;20091;-84
2021/05/14 01:11:44;;;;;;;2.42;2.13;;;;;;;;;;4920804;28;20055;-84
2021/05/14 01:14:11;;;;;;;3.30;2.00;;;;;;;;;;4934061;28;20059;-84
2021/05/14 01:16:38;;;;;;;3.13;2.08;;;;;;;;;;4940949;28;20035;-84
2021/05/14 01:19:04;;;;;;;2.70;2.30;;;;;;;;;;4912780;29;20055;-85
2021/05/14 01:21:31;;;;;;;3.22;2.33;;;;;;;;;;4930288;28;20063;-85
2021/05/14 01:23:58;;;;;;;3.30;2.47;;;;;;;;;;4926166;28;20138;-86
2021/05/14 01:26:26;;;;;;;2.67;1.90;;;;;;;;;;4919711;28;20032;-84
2021/05/14 01:28:53;;;;;;;2.97;2.25;;;;;;;;;;4914562;28;20492;-84
2021/05/14 01:31:20;;;;;;;2.88;2.20;;;;;;;;;;4916757;28;20520;-85
2021/05/14 01:33:47;;;;;;;3.38;2.10;;;;;;;;;;4941549;28;20062;-85
2021/05/14 01:36:14;;;;;;;2.72;1.88;;;;;;;;;;4923935;28;20564;-85
2021/05/14 01:38:41;;;;;;;3.78;1.92;;;;;;;;;;4937743;28;20100;-85
2021/05/14 01:41:08;;;;;;;2.95;2.20;;;;;;;;;;4932439;28;20624;-85
2021/05/14 01:43:34;;;;;;;2.55;2.10;;;;;;;;;;4939800;28;20663;-85
2021/05/14 01:46:04;;;;;;;2.95;2.22;;;;;;;;;;4925002;28;20275;-85
2021/05/14 01:48:31;;;;;;;3.15;1.88;;;;;;;;;;4928675;28;21086;-85
2021/05/14 01:50:59;;;;;;;3.13;2.20;;;;;;;;;;4930093;28;20067;-85
2021/05/14 01:53:26;;;;;;;2.88;2.17;;;;;;;;;;4918275;28;20060;-85
2021/05/14 01:55:52;;;;;;;2.85;2.05;;;;;;;;;;4941575;28;20114;-84
2021/05/14 01:58:19;;;;;;;3.20;1.70;;;;;;;;;;4923440;28;20070;-84
2021/05/14 02:00:45;;;;;;;4.57;2.30;;;;;;;;;;4923296;28;20142;-85
2021/05/14 02:03:12;;;;;;;2.97;2.20;;;;;;;;;;4936812;28;20060;-84
2021/05/14 02:05:38;;;;;;;3.25;2.15;;;;;;;;;;4910829;29;20493;-83
2021/05/14 02:08:05;;;;;;;2.90;1.92;;;;;;;;;;4936444;28;20055;-83
2021/05/14 02:10:31;;;;;;;3.30;2.10;;;;;;;;;;4937338;28;20609;-84
2021/05/14 02:12:58;;;;;;;2.80;2.17;;;;;;;;;;4940765;28;20059;-84
2021/05/14 02:15:24;;;;;;;3.03;1.98;;;;;;;;;;4926547;28;20068;-84
2021/05/14 02:17:50;;;;;;;2.85;2.10;;;;;;;;;;4953260;28;20067;-84
2021/05/14 02:20:17;;;;;;;2.78;1.88;;;;;;;;;;4929166;28;20082;-84
2021/05/14 02:22:43;;;;;;;3.08;2.00;;;;;;;;;;4921895;29;20063;-84
2021/05/14 02:25:10;;;;;;;3.47;2.20;;;;;;;;;;4940068;28;20059;-84
2021/05/14 02:27:36;;;;;;;3.20;1.83;;;;;;;;;;4926298;28;20080;-84
2021/05/14 02:30:04;;;;;;;3.00;2.10;;;;;;;;;;4928649;28;20492;-85
2021/05/14 02:32:31;;;;;;;2.72;1.88;;;;;;;;;;4921185;28;20043;-84
2021/05/14 02:34:57;;;;;;;2.92;2.00;;;;;;;;;;4925683;28;20525;-85
2021/05/14 02:37:24;;;;;;;2.65;1.90;;;;;;;;;;4935212;28;20070;-84
2021/05/14 02:39:50;;;;;;;4.00;2.00;;;;;;;;;;4927721;28;20068;-84
2021/05/14 02:42:17;;;;;;;3.70;1.95;;;;;;;;;;4935678;28;20067;-84
2021/05/14 02:44:46;;;;;;;2.70;2.03;;;;;;;;;;4921887;28;20170;-84
2021/05/14 02:47:12;;;;;;;3.28;2.20;;;;;;;;;;4939861;28;20034;-84
2021/05/14 02:49:39;;;;;;;3.15;1.75;;;;;;;;;;4929147;28;20055;-84
2021/05/14 02:52:06;;;;;;;2.67;1.95;;;;;;;;;;4926513;28;20107;-83
2021/05/14 02:54:36;;;;;;;2.97;2.08;;;;;;;;;;4938142;28;22070;-84
2021/05/14 02:57:03;;;;;;;2.70;1.87;;;;;;;;;;4916045;28;20111;-85
2021/05/14 02:59:30;;;;;;;2.53;1.90;;;;;;;;;;4936392;28;21107;-84
2021/05/14 03:01:57;;;;;;;2.40;1.85;;;;;;;;;;4946862;28;20067;-84
2021/05/14 03:04:23;;;;;;;2.97;1.85;;;;;;;;;;4924123;28;20488;-83
2021/05/14 03:06:50;;;;;;;2.20;1.80;;;;;;;;;;4928043;28;20063;-84
2021/05/14 03:09:16;;;;;;;2.50;1.77;;;;;;;;;;4919342;28;20036;-84
2021/05/14 03:11:43;;;;;;;2.75;1.92;;;;;;;;;;4911449;29;20044;-83
2021/05/14 03:14:12;;;;;;;3.00;1.80;;;;;;;;;;4937789;28;20039;-83
2021/05/14 03:16:38;;;;;;;2.85;1.90;;;;;;;;;;4908713;29;20111;-85
2021/05/14 03:19:05;;;;;;;2.30;1.70;;;;;;;;;;4928384;28;20074;-84
2021/05/14 03:21:31;;;;;;;1.85;1.45;;;;;;;;;;4924065;28;20068;-84
2021/05/14 03:23:59;;;;;;;2.67;2.00;;;;;;;;;;4903738;29;20099;-84
2021/05/14 03:26:26;;;;;;;2.50;2.00;;;;;;;;;;4944915;28;20091;-84
2021/05/14 03:28:53;;;;;;;2.47;1.70;;;;;;;;;;4907470;29;20051;-84
2021/05/14 03:31:20;;;;;;;3.08;1.80;;;;;;;;;;4922112;28;20040;-83
2021/05/14 03:33:46;;;;;;;2.92;2.10;;;;;;;;;;4922242;28;20107;-83
2021/05/14 03:36:16;;;;;;;2.70;1.60;;;;;;;;;;4926759;28;20055;-84
2021/05/14 03:38:43;;;;;;;3.33;1.83;;;;;;;;;;4926150;29;20483;-84
2021/05/14 03:43:54;;;;;;;2.55;1.67;;;;;;;;;;4936578;28;20457;-84
2021/05/14 03:46:21;;;;;;;3.47;1.90;;;;;;;;;;4940027;28;20137;-84
2021/05/14 03:48:48;;;;;;;2.42;1.85;;;;;;;;;;4914673;29;20036;-85
2021/05/14 03:51:14;;;;;;;2.30;1.70;;;;;;;;;;4940463;28;20511;-84
2021/05/14 03:53:40;;;;;;;2.30;1.90;;;;;;;;;;4939338;28;20119;-84
2021/05/14 03:56:10;;;;;;;3.17;1.98;;;;;;;;;;4921619;28;20056;-84
2021/05/14 03:58:36;;;;;;;2.85;1.92;;;;;;;;;;4912679;28;20052;-84
2021/05/14 04:01:03;;;;;;;2.85;1.75;;;;;;;;;;4936483;28;20063;-84
2021/05/14 04:03:29;;;;;;;2.40;1.80;;;;;;;;;;4934091;28;20137;-84
2021/05/14 04:05:55;;;;;;;2.78;1.90;;;;;;;;;;4922093;28;20078;-83
2021/05/14 04:08:22;;;;;;;2.75;1.73;;;;;;;;;;4932420;28;20035;-84
2021/05/14 04:11:03;;;;;;;3.65;1.80;;;;;;;;;;4931406;28;20132;-84
2021/05/14 04:16:15;;;;;;;2.30;1.73;;;;;;;;;;4919817;28;20150;-83
2021/05/14 04:18:41;;;;;;;3.15;2.00;;;;;;;;;;4940374;28;20133;-85
2021/05/14 04:21:08;;;;;;;2.90;1.95;;;;;;;;;;4922265;29;20492;-85
2021/05/14 04:23:34;;;;;;;2.60;1.92;;;;;;;;;;4922469;28;20082;-85
2021/05/14 04:26:01;;;;;;;2.78;2.00;;;;;;;;;;4928267;28;20184;-85
2021/05/14 04:28:27;;;;;;;2.53;2.00;;;;;;;;;;4924219;28;20068;-82
2021/05/14 04:30:54;;;;;;;3.33;1.98;;;;;;;;;;4945921;28;20078;-84
2021/05/14 04:33:20;;;;;;;2.17;1.75;;;;;;;;;;4923790;28;20059;-83
2021/05/14 04:35:48;;;;;;;2.53;1.60;;;;;;;;;;4917802;28;20059;-84
2021/05/14 04:38:14;;;;;;;2.92;1.88;;;;;;;;;;4918466;28;20067;-84
2021/05/14 04:40:41;;;;;;;3.80;2.00;;;;;;;;;;4913685;29;20042;-83
2021/05/14 04:43:07;;;;;;;2.90;1.63;;;;;;;;;;4926329;28;20063;-84
2021/05/14 04:45:35;;;;;;;3.03;1.60;;;;;;;;;;4920214;28;20067;-84
2021/05/14 04:48:02;;;;;;;3.55;1.80;;;;;;;;;;4933785;28;20465;-84
2021/05/14 04:50:28;;;;;;;3.08;2.13;;;;;;;;;;4920991;28;20052;-83
2021/05/14 04:53:03;;;;;;;2.65;1.90;;;;;;;;;;4936372;28;20063;-84
2021/05/14 04:55:30;;;;;;;2.30;1.55;;;;;;;;;;4947616;28;20059;-84
2021/05/14 04:57:56;;;;;;;2.40;1.90;;;;;;;;;;4940611;28;20059;-84
2021/05/14 05:00:23;;;;;;;2.60;1.75;;;;;;;;;;4942436;28;20417;-85
2021/05/14 05:02:50;;;;;;;2.13;1.63;;;;;;;;;;4906229;29;20039;-85
2021/05/14 05:05:16;;;;;;;1.95;1.60;;;;;;;;;;4930790;28;20064;-84
2021/05/14 05:07:43;;;;;;;2.30;1.70;;;;;;;;;;4931652;28;20500;-84
2021/05/14 05:10:09;;;;;;;2.70;1.80;;;;;;;;;;4920340;29;20068;-84
2021/05/14 05:12:36;;;;;;;2.22;1.50;;;;;;;;;;4930972;28;20068;-84
2021/05/14 05:15:02;;;;;;;2.95;1.98;;;;;;;;;;4920649;29;20640;-84
2021/05/14 05:17:29;;;;;;;2.45;1.88;;;;;;;;;;4926462;28;20575;-85
2021/05/14 05:19:55;;;;;;;3.50;1.80;;;;;;;;;;4937500;28;20040;-85
2021/05/14 05:22:22;;;;;;;2.40;1.85;;;;;;;;;;4935733;28;20610;-83
2021/05/14 05:24:49;;;;;;;2.35;1.85;;;;;;;;;;4930157;28;20144;-85
2021/05/14 05:27:15;;;;;;;4.05;1.60;;;;;;;;;;4933440;28;20067;-85
2021/05/14 05:29:42;;;;;;;2.28;1.50;;;;;;;;;;4922268;28;20035;-85
2021/05/14 05:32:09;;;;;;;2.17;1.83;;;;;;;;;;4914233;28;20044;-83
2021/05/14 05:34:35;;;;;;;2.05;1.60;;;;;;;;;;4932584;28;20044;-83
2021/05/14 05:37:02;;;;;;;2.35;1.65;;;;;;;;;;4931926;28;20095;-85
2021/05/14 05:39:29;;;;;;;2.30;1.70;;;;;;;;;;4943830;28;20048;-85
2021/05/14 05:41:55;;;;;;;3.45;1.70;;;;;;;;;;4935489;28;20052;-85
2021/05/14 05:44:22;;;;;;;2.20;1.77;;;;;;;;;;4918949;28;20524;-85
2021/05/14 05:46:48;;;;;;;2.60;1.83;;;;;;;;;;4925435;28;20046;-84
2021/05/14 05:49:15;;;;;;;2.10;1.80;;;;;;;;;;4914078;28;20040;-84
2021/05/14 05:51:41;;;;;;;2.30;1.70;;;;;;;;;;4942327;28;20060;-84
2021/05/14 05:54:08;;;;;;;2.20;1.70;;;;;;;;;;4938878;28;20082;-85
2021/05/14 05:56:35;;;;;;;2.22;1.52;;;;;;;;;;4937763;28;20036;-85
2021/05/14 05:59:01;;;;;;;2.50;1.73;;;;;;;;;;4937255;28;20055;-85
2021/05/14 06:01:28;;;;;;;3.42;1.95;;;;;;;;;;4924011;28;20048;-85
2021/05/14 06:03:55;;;;;;;2.65;1.60;;;;;;;;;;4937268;28;20100;-85
2021/05/14 06:06:21;;;;;;;2.92;1.85;;;;;;;;;;4941717;28;20036;-85
2021/05/14 06:08:48;;;;;;;2.38;1.60;;;;;;;;;;4940386;28;20535;-84
2021/05/14 06:11:14;;;;;;;4.93;1.52;;;;;;;;;;4924709;28;20071;-85
2021/05/14 06:13:40;;;;;;;2.22;1.88;;;;;;;;;;4923378;28;20055;-85
2021/05/14 06:16:07;;;;;;;2.38;1.70;;;;;;;;;;4916233;28;20037;-85
2021/05/14 06:18:38;;;;;;;2.72;1.67;;;;;;;;;;4913117;28;20095;-85
2021/05/14 06:21:06;;;;;;;2.50;1.58;;;;;;;;;;4925744;28;20119;-85
2021/05/14 06:23:33;;;;;;;3.08;1.70;;;;;;;;;;4932244;28;20523;-85
2021/05/14 06:26:00;;;;;;;1.85;1.60;;;;;;;;;;4927649;28;20568;-85
2021/05/14 06:28:26;;;;;;;1.73;1.40;;;;;;;;;;4951139;28;20060;-85
2021/05/14 06:30:53;;;;;;;2.45;1.73;;;;;;;;;;4917818;28;20064;-85
2021/05/14 06:33:19;;;;;;;2.28;1.45;;;;;;;;;;4940692;28;20067;-85
2021/05/14 06:35:49;;;;;;;2.25;1.55;;;;;;;;;;4922766;29;20059;-85
2021/05/14 06:38:16;;;;;;;1.70;1.50;;;;;;;;;;4937242;28;20110;-84
2021/05/14 06:40:42;;;;;;;1.60;1.30;;;;;;;;;;4906151;29;20134;-87
2021/05/14 06:43:09;;;;;;;2.65;1.70;;;;;;;;;;4933251;28;20067;-84
2021/05/14 06:45:35;;;;;;;1.85;1.40;;;;;;;;;;4931552;28;20064;-85
2021/05/14 06:48:07;;;;;;;1.88;1.55;;;;;;;;;;4914771;28;20060;-85
2021/05/14 06:50:33;;;;;;;;;;;;;;;;;;4916810;28;20488;-84
2021/05/14 06:53:01;;;;;;;1.70;1.30;;;;;;;;;;4938196;28;19922;-85
2021/05/14 06:55:28;;;;;;;2.00;1.50;;;;;;;;;;4930258;28;20588;-85
2021/05/14 06:57:54;;;;;;;2.30;1.42;;;;;;;;;;4945273;28;20129;-85
2021/05/14 07:00:21;;;;;;;1.75;1.42;;;;;;;;;;4926484;28;20067;-84
2021/05/14 07:02:48;;;;;;;2.65;1.48;;;;;;;;;;4927443;28;20535;-85
2021/05/14 07:05:15;;;;;;;1.70;1.30;;;;;;;;;;4915145;28;20063;-84
2021/05/14 07:07:42;;;;;;;1.75;1.30;;;;;;;;;;4929067;29;20118;-85
2021/05/14 07:10:09;;;;;;;1.70;1.30;;;;;;;;;;4934325;28;20472;-85
2021/05/14 07:12:35;;;;;;;2.28;1.38;;;;;;;;;;4919621;28;20080;-85
2021/05/14 07:15:03;;;;;;;2.92;1.33;;;;;;;;;;4915018;28;20064;-85
2021/05/14 07:17:29;;;;;;;2.05;1.55;;;;;;;;;;4928007;28;20903;-85
2021/05/14 07:19:56;;;;;;;1.50;1.20;;;;;;;;;;4928016;28;20067;-85
2021/05/14 07:22:22;;;;;;;1.88;1.45;;;;;;;;;;4926541;28;20510;-85
2021/05/14 07:24:49;;;;;;;1.90;1.20;;;;;;;;;;4936470;28;20040;-84
2021/05/14 07:27:16;;;;;;;1.80;1.13;;;;;;;;;;4906935;28;20127;-84
2021/05/14 07:29:43;;;;;;;1.50;1.23;;;;;;;;;;4926015;29;20138;-85
2021/05/14 07:32:10;;;;;;;2.03;1.60;;;;;;;;;;4934349;28;20059;-85
2021/05/14 07:34:36;;;;;;;2.40;1.40;;;;;;;;;;4924930;28;20107;-85
2021/05/14 07:37:03;;;;;;;1.60;1.30;;;;;;;;;;4911976;28;20499;-85
2021/05/14 07:39:29;;;;;;;2.15;1.50;;;;;;;;;;4938119;28;20092;-85
2021/05/14 07:41:56;;;;;;;1.73;1.27;;;;;;;;;;4930600;29;20511;-84
2021/05/14 07:44:22;;;;;;;1.70;1.40;;;;;;;;;;4916806;28;20068;-84
2021/05/14 07:46:49;;;;;;;1.50;1.15;;;;;;;;;;4926470;29;20067;-85
2021/05/14 07:49:16;;;;;;;2.20;1.38;;;;;;;;;;4919332;28;20064;-84
2021/05/14 07:51:42;;;;;;;1.67;1.25;;;;;;;;;;4927738;28;20060;-85
2021/05/14 07:54:09;;;;;;;2.03;1.25;;;;;;;;;;4931569;28;20752;-85
2021/05/14 07:56:35;;;;;;;1.70;1.35;;;;;;;;;;4939945;28;20060;-85
2021/05/14 07:59:02;;;;;;;1.70;1.35;;;;;;;;;;4923384;28;20059;-85
2021/05/14 08:01:29;;;;;;;1.52;1.15;;;;;;;;;;4922657;28;20606;-85
2021/05/14 08:03:55;;;;;;;1.80;1.33;;;;;;;;;;4952479;28;20051;-85
2021/05/14 08:06:22;;;;;;;1.73;1.33;;;;;;;;;;4920373;28;20068;-84
2021/05/14 08:08:48;;;;;;;1.92;1.30;;;;;;;;;;4923457;28;20055;-84
2021/05/14 08:11:15;;;;;;;2.00;1.40;;;;;;;;;;4938310;28;20035;-84
2021/05/14 08:13:42;;;;;;;1.55;1.30;;;;;;;;;;4942305;28;20551;-85
2021/05/14 08:16:08;;;;;;;1.40;1.20;;;;;;;;;;4907316;29;20104;-85
2021/05/14 08:18:34;;;;;;;1.83;1.40;;;;;;;;;;4923596;28;20418;-85
2021/05/14 08:21:01;;;;;;;1.98;1.50;;;;;;;;;;4942778;28;20684;-85
2021/05/14 08:23:27;;;;;;;1.30;1.20;;;;;;;;;;4938894;28;20566;-85
2021/05/14 08:25:57;;;;;;;2.47;1.20;;;;;;;;;;4923083;28;20044;-86
2021/05/14 08:28:24;;;;;;;2.25;1.20;;;;;;;;;;4923033;28;20463;-85
2021/05/14 08:30:51;;;;;;;2.20;1.42;;;;;;;;;;4916196;28;20520;-85
2021/05/14 08:33:18;;;;;;;1.90;1.58;;;;;;;;;;4932928;28;20503;-85
2021/05/14 08:35:44;;;;;;;1.35;1.00;;;;;;;;;;4924803;29;21030;-85
2021/05/14 08:38:11;;;;;;;2.40;1.40;;;;;;;;;;4934541;28;20071;-85
2021/05/14 08:40:39;;;;;;;1.50;1.20;;;;;;;;;;4914423;28;20060;-85
2021/05/14 08:43:06;;;;;;;2.05;1.40;;;;;;;;;;4941918;28;20114;-86
2021/05/14 08:45:33;;;;;;;1.83;1.40;;;;;;;;;;4938015;28;20075;-85
2021/05/14 08:48:00;;;;;;;2.30;1.40;;;;;;;;;;4907824;29;20497;-85
2021/05/14 08:50:27;;;;;;;1.95;1.33;;;;;;;;;;4926959;28;20064;-85
2021/05/14 08:52:54;;;;;;;1.67;1.35;;;;;;;;;;4924791;28;20031;-84
2021/05/14 08:55:23;;;;;;;1.80;1.30;;;;;;;;;;4931837;28;20059;-85
2021/05/14 08:57:51;;;;;;;2.00;1.38;;;;;;;;;;4916154;28;20056;-85
2021/05/14 09:00:17;;;;;;;2.33;1.40;;;;;;;;;;4919481;28;20075;-85
2021/05/14 09:02:44;;;;;;;1.92;1.40;;;;;;;;;;4928857;28;20058;-85
2021/05/14 09:05:20;;;;;;;1.73;1.30;;;;;;;;;;4924714;28;20060;-86
2021/05/14 09:07:47;;;;;;;1.95;1.42;;;;;;;;;;4946485;28;21833;-85
2021/05/14 09:10:13;;;;;;;1.92;1.50;;;;;;;;;;4912056;29;20499;-85
2021/05/14 09:12:41;;;;;;;2.05;1.30;;;;;;;;;;4906179;29;20103;-85
2021/05/14 09:15:25;;;;;;;1.60;1.38;;;;;;;;;;4921423;28;20098;-85
2021/05/14 09:18:03;;;;;;;1.48;1.30;;;;;;;;;;4923948;28;20519;-86
2021/05/14 09:20:34;;;;;;;1.75;1.33;;;;;;;;;;4944700;28;20463;-85
2021/05/14 09:23:16;;;;;;;2.00;1.48;;;;;;;;;;4909211;29;20055;-86
2021/05/14 09:25:58;;;;;;;1.70;1.40;;;;;;;;;;4920422;28;20043;-86
2021/05/14 09:28:32;;;;;;;3.60;1.60;;;;;;;;;;4940483;28;20056;-85
2021/05/14 09:31:09;;;;;;;1.90;1.48;;;;;;;;;;4912978;29;20031;-85
2021/05/14 09:33:37;;;;;;;1.77;1.40;;;;;;;;;;4935309;28;20039;-85
2021/05/14 09:36:05;;;;;;;3.15;1.33;;;;;;;;;;4932130;28;20114;-85
2021/05/14 09:38:40;;;;;;;2.60;1.65;;;;;;;;;;4919173;28;20056;-85
2021/05/14 09:41:07;;;;;;;2.20;1.55;;;;;;;;;;4933257;28;20051;-86
2021/05/14 09:43:52;;;;;;;3.70;1.42;;;;;;;;;;4926548;28;20440;-85
2021/05/14 09:46:36;;;;;;;2.42;1.45;;;;;;;;;;4920886;28;20040;-85
2021/05/14 09:49:04;;;;;;;1.50;1.23;;;;;;;;;;4941932;28;20036;-86
2021/05/14 09:51:31;;;;;;;2.00;1.52;;;;;;;;;;4946263;28;20044;-85
2021/05/14 09:54:17;;;;;;;1.80;1.60;;;;;;;;;;4940608;28;20035;-85
2021/05/14 09:56:44;;;;;;;2.13;1.70;;;;;;;;;;4913836;29;20060;-85
2021/05/14 09:59:12;;;;;;;2.63;1.63;;;;;;;;;;4936969;28;20060;-85
2021/05/14 10:01:42;;;;;;;2.15;1.60;;;;;;;;;;4933505;28;20071;-85
2021/05/14 10:04:11;;;;;;;1.85;1.40;;;;;;;;;;4910188;29;20114;-85
2021/05/14 10:06:37;;;;;;;2.45;1.63;;;;;;;;;;4911248;28;20059;-85
2021/05/14 10:09:08;;;;;;;2.38;1.48;;;;;;;;;;4919283;28;20079;-84
2021/05/14 10:11:35;;;;;;;3.40;1.40;;;;;;;;;;4930127;28;22371;-83
2021/05/14 10:14:03;;;;;;;1.92;1.52;;;;;;;;;;4936514;28;20569;-84
2021/05/14 10:16:30;;;;;;;3.92;1.55;;;;;;;;;;4920249;28;20650;-85
2021/05/14 10:18:57;;;;;;;2.15;1.60;;;;;;;;;;4932695;28;20040;-86
2021/05/14 10:21:24;;;;;;;2.20;1.60;;;;;;;;;;4941115;28;20126;-84
2021/05/14 10:23:50;;;;;;;2.00;1.60;;;;;;;;;;4915704;28;20040;-85
2021/05/14 10:26:17;;;;;;;2.22;1.70;;;;;;;;;;4937576;28;20114;-84
2021/05/14 10:28:47;;;;;;;2.88;1.42;;;;;;;;;;4925453;28;20047;-85
2021/05/14 10:31:18;;;;;;;2.03;1.50;;;;;;;;;;4943443;28;20060;-85
2021/05/14 10:33:46;;;;;;;2.08;1.42;;;;;;;;;;4937583;28;20507;-83
2021/05/14 10:36:16;;;;;;;2.55;1.50;;;;;;;;;;4928293;28;20507;-83
2021/05/14 10:38:42;;;;;;;1.80;1.35;;;;;;;;;;4912845;28;20031;-84
2021/05/14 10:41:28;;;;;;;2.20;1.77;;;;;;;;;;4903720;29;20063;-84
2021/05/14 10:43:58;;;;;;;1.80;1.40;;;;;;;;;;4923847;28;20623;-84
2021/05/14 10:46:28;;;;;;;1.92;1.48;;;;;;;;;;4938189;28;20475;-84
2021/05/14 10:49:16;;;;;;;2.00;1.60;;;;;;;;;;4938781;28;20075;-84
2021/05/14 10:51:49;;;;;;;2.63;1.70;;;;;;;;;;4935276;28;21030;-84
2021/05/14 10:54:34;;;;;;;2.45;1.50;;;;;;;;;;4904749;28;20115;-83
2021/05/14 10:57:00;;;;;;;2.40;1.63;;;;;;;;;;4941791;28;20193;-84
2021/05/14 10:59:30;;;;;;;2.15;1.55;;;;;;;;;;4931949;28;20216;-83
2021/05/14 11:01:58;;;;;;;1.80;1.48;;;;;;;;;;4927558;28;20515;-84
2021/05/14 11:04:25;;;;;;;1.90;1.30;;;;;;;;;;4937046;28;20472;-83
2021/05/14 11:06:53;;;;;;;2.03;1.58;;;;;;;;;;4939745;28;20039;-84
2021/05/14 11:09:22;;;;;;;1.63;1.30;;;;;;;;;;4926804;28;20098;-83
2021/05/14 11:12:10;;;;;;;3.03;1.50;;;;;;;;;;4938922;28;20154;-85
2021/05/14 11:14:39;;;;;;;2.20;1.50;;;;;;;;;;4939672;28;20110;-83
2021/05/14 11:17:13;;;;;;;2.95;1.55;;;;;;;;;;4926155;28;20068;-84
2021/05/14 11:19:46;;;;;;;2.33;1.70;;;;;;;;;;4935795;28;20064;-85
2021/05/14 11:22:15;;;;;;;2.35;1.85;;;;;;;;;;4937399;28;20068;-84
2021/05/14 11:24:49;;;;;;;2.35;1.60;;;;;;;;;;4919629;28;20046;-84
2021/05/14 11:27:15;;;;;;;2.45;1.50;;;;;;;;;;4934261;28;20087;-82
2021/05/14 11:29:44;;;;;;;2.15;1.60;;;;;;;;;;4945831;28;20028;-84
2021/05/14 11:32:32;;;;;;;2.65;1.63;;;;;;;;;;4940499;28;20052;-84
2021/05/14 11:35:08;;;;;;;2.60;1.58;;;;;;;;;;4934792;28;21091;-83
2021/05/14 11:37:38;;;;;;;2.38;1.50;;;;;;;;;;4925598;28;20527;-82
2021/05/14 11:40:08;;;;;;;1.80;1.30;;;;;;;;;;4935385;28;20140;-85
2021/05/14 11:42:38;;;;;;;2.40;1.60;;;;;;;;;;4903994;28;20068;-86
2021/05/14 11:45:06;;;;;;;2.03;1.57;;;;;;;;;;4927115;28;20064;-85
2021/05/14 11:47:32;;;;;;;2.30;1.58;;;;;;;;;;4931765;28;20430;-85
2021/05/14 11:49:59;;;;;;;1.90;1.27;;;;;;;;;;4912877;29;20033;-85
2021/05/14 11:52:36;;;;;;;2.65;1.70;;;;;;;;;;4924284;28;20059;-84
2021/05/14 11:55:07;;;;;;;1.75;1.30;;;;;;;;;;4939054;28;20099;-85
2021/05/14 11:57:36;;;;;;;1.80;1.20;;;;;;;;;;4936150;28;20060;-85
2021/05/14 12:00:05;;;;;;;2.45;1.42;;;;;;;;;;4941958;28;20132;-84
2021/05/14 12:02:38;;;;;;;1.58;1.23;;;;;;;;;;4938468;28;20052;-85
2021/05/14 12:05:05;;;;;;;2.22;1.52;;;;;;;;;;4917342;28;20123;-85
2021/05/14 12:07:32;;;;;;;2.40;1.60;;;;;;;;;;4928252;28;20067;-85
2021/05/14 12:09:59;;;;;;;2.50;1.30;;;;;;;;;;4940874;28;20111;-85
2021/05/14 12:12:25;;;;;;;2.05;1.48;;;;;;;;;;4935216;28;20055;-87
2021/05/14 12:14:52;;;;;;;2.03;1.30;;;;;;;;;;4938237;28;20127;-85
2021/05/14 12:17:18;;;;;;;1.77;1.42;;;;;;;;;;4936825;28;20408;-85
2021/05/14 12:19:48;;;;;;;1.70;1.30;;;;;;;;;;4933519;28;20083;-89
2021/05/14 12:22:15;;;;;;;2.83;1.30;;;;;;;;;;4935515;28;20047;-88
2021/05/14 12:24:44;;;;;;;1.70;1.33;;;;;;;;;;4927009;29;20064;-88
2021/05/14 12:27:19;;;;;;;1.83;1.30;;;;;;;;;;4941085;28;20058;-89
2021/05/14 12:29:47;;;;;;;1.80;1.20;;;;;;;;;;4919930;29;20104;-88
2021/05/14 12:32:17;;;;;;;1.85;1.30;;;;;;;;;;4937680;28;20069;-88
2021/05/14 12:34:51;;;;;;;2.85;1.38;;;;;;;;;;4927586;28;20039;-88
2021/05/14 12:37:17;;;;;;;2.15;1.30;;;;;;;;;;4939541;28;20036;-88
2021/05/14 12:39:48;;;;;;;1.63;1.23;;;;;;;;;;4921713;28;20101;-89
2021/05/14 12:42:24;;;;;;;2.22;1.30;;;;;;;;;;4917377;28;20044;-90
2021/05/14 12:44:52;;;;;;;1.95;1.33;;;;;;;;;;4920394;28;20084;-90
2021/05/14 12:47:21;;;;;;;1.80;1.33;;;;;;;;;;4945344;28;20083;-89
2021/05/14 12:49:55;;;;;;;1.60;1.15;;;;;;;;;;4927077;28;20052;-89
2021/05/14 12:52:29;;;;;;;2.45;1.40;;;;;;;;;;4921193;28;20035;-89
2021/05/14 12:54:57;;;;;;;1.80;1.35;;;;;;;;;;4899718;29;20059;-90
2021/05/14 12:57:27;;;;;;;1.63;1.30;;;;;;;;;;4900685;28;20028;-89
2021/05/14 12:59:54;;;;;;;2.03;1.42;;;;;;;;;;4919063;29;20056;-90
2021/05/14 13:02:22;;;;;;;3.40;1.30;;;;;;;;;;4934725;28;20072;-89
2021/05/14 13:05:04;;;;;;;1.77;1.30;;;;;;;;;;4942937;28;20091;-90
2021/05/14 13:07:30;;;;;;;1.95;1.20;;;;;;;;;;4913079;28;20094;-90
2021/05/14 13:09:57;;;;;;;1.80;1.30;;;;;;;;;;4946332;28;20099;-89
2021/05/14 13:12:24;;;;;;;1.42;1.10;;;;;;;;;;4930306;28;20147;-88
2021/05/14 13:14:51;;;;;;;2.10;1.40;;;;;;;;;;4933379;28;20047;-89
2021/05/14 13:17:18;;;;;;;1.38;1.10;;;;;;;;;;4921431;28;20056;-87
2021/05/14 13:19:45;;;;;;;1.80;1.42;;;;;;;;;;4920341;29;20036;-89
2021/05/14 13:22:16;;;;;;;1.70;1.17;;;;;;;;;;4909478;29;20084;-88
2021/05/14 13:24:43;;;;;;;2.28;1.40;;;;;;;;;;4915095;28;20031;-87
2021/05/14 13:27:09;;;;;;;2.00;1.30;;;;;;;;;;4937713;28;20382;-88
2021/05/14 13:29:36;;;;;;;1.88;1.17;;;;;;;;;;4935196;28;25257;-89
2021/05/14 13:32:03;;;;;;;1.73;1.27;;;;;;;;;;4918226;28;20039;-89
2021/05/14 13:34:29;;;;;;;1.85;1.20;;;;;;;;;;4920160;28;20032;-88
2021/05/14 13:36:56;;;;;;;1.67;1.10;;;;;;;;;;4919541;28;20036;-89
2021/05/14 13:39:23;;;;;;;2.13;1.30;;;;;;;;;;4921632;28;20203;-88
2021/05/14 13:41:50;;;;;;;1.70;1.40;;;;;;;;;;4913936;29;20048;-89
2021/05/14 13:44:16;;;;;;;1.60;1.33;;;;;;;;;;4919218;28;20091;-87
2021/05/14 13:46:44;;;;;;;1.65;1.20;;;;;;;;;;4929343;28;20103;-89
2021/05/14 13:49:11;;;;;;;1.90;1.50;;;;;;;;;;4914219;28;20087;-89
2021/05/14 13:51:38;;;;;;;1.83;1.20;;;;;;;;;;4942802;28;20054;-89
2021/05/14 13:54:05;;;;;;;1.48;1.20;;;;;;;;;;4916415;29;20067;-89
2021/05/14 13:56:31;;;;;;;2.15;1.40;;;;;;;;;;4932835;28;20035;-88
2021/05/14 13:58:58;;;;;;;1.65;1.27;;;;;;;;;;4926136;28;20131;-88
2021/05/14 14:01:24;;;;;;;1.80;1.40;;;;;;;;;;4913902;28;20120;-87
2021/05/14 14:03:51;;;;;;;1.67;1.23;;;;;;;;;;4923116;28;20047;-87
2021/05/14 14:06:17;;;;;;;1.92;1.45;;;;;;;;;;4934714;28;20572;-87
2021/05/14 14:08:45;;;;;;;2.50;1.27;;;;;;;;;;4921626;28;20186;-87
2021/05/14 14:11:12;;;;;;;2.20;1.20;;;;;;;;;;4939764;28;20052;-87
2021/05/14 14:13:39;;;;;;;1.42;1.10;;;;;;;;;;4905095;28;20040;-87
2021/05/14 14:16:05;;;;;;;2.17;1.20;;;;;;;;;;4925675;28;20091;-88
2021/05/14 14:18:33;;;;;;;1.92;1.33;;;;;;;;;;4930801;28;20500;-87
2021/05/14 14:21:00;;;;;;;2.35;1.40;;;;;;;;;;4916052;28;20118;-88
2021/05/14 14:23:26;;;;;;;2.67;1.40;;;;;;;;;;4910344;28;20453;-87
2021/05/14 14:25:53;;;;;;;1.35;1.10;;;;;;;;;;4920145;28;20067;-88
2021/05/14 14:28:19;;;;;;;2.38;1.42;;;;;;;;;;4925893;28;20163;-88
2021/05/14 14:30:46;;;;;;;2.67;1.30;;;;;;;;;;4922690;28;20036;-88
2021/05/14 14:33:12;;;;;;;2.63;1.17;;;;;;;;;;4939458;28;20035;-88
2021/05/14 14:35:38;;;;;;;1.83;1.40;;;;;;;;;;4928924;28;20036;-88
2021/05/14 14:38:07;;;;;;;1.60;1.23;;;;;;;;;;4916885;28;20043;-88
2021/05/14 14:40:33;;;;;;;1.63;1.30;;;;;;;;;;4917161;28;20040;-88
2021/05/14 14:43:00;;;;;;;2.00;1.40;;;;;;;;;;4927766;28;20075;-88
2021/05/14 14:45:26;;;;;;;2.08;1.55;;;;;;;;;;4915030;28;20138;-88
2021/05/14 14:47:53;;;;;;;1.98;1.30;;;;;;;;;;4912514;28;20488;-89
2021/05/14 14:50:20;;;;;;;2.17;1.30;;;;;;;;;;4938395;28;20044;-89
2021/05/14 14:52:46;;;;;;;1.73;1.23;;;;;;;;;;4918175;28;20107;-89